Time,TemperatureF,DewpointF,PressureIn,WindDirection,WindDirectionDegrees,WindSpeedMPH,WindSpeedGustMPH,Humidity,HourlyPrecipIn,Conditions,Clouds,dailyrainin,SoftwareType,DateUTC
2013-08-06 00:02:00,71.2,57.0,29.95,SSW,200,0.0,2.0,61,0.00,,,0.00,weatherlink.com 1.10,2013-08-06 04:02:00,
2013-08-06 00:17:00,71.1,57.0,29.95,SE,127,2.0,2.0,61,0.00,,,0.00,weatherlink.com 1.10,2013-08-06 04:17:00,
2013-08-06 00:32:00,71.0,56.0,29.95,SW,218,0.0,1.0,60,0.00,,,0.00,weatherlink.com 1.10,2013-08-06 04:32:00,
2013-08-06 00:47:00,70.6,56.0,29.95,SW,218,0.0,0.0,60,0.00,,,0.00,weatherlink.com 1.10,2013-08-06 04:47:00,
2013-08-06 01:02:00,70.5,55.0,29.95,SW,219,0.0,0.0,59,0.00,,,0.00,weatherlink.com 1.10,2013-08-06 05:02:00,
2013-08-06 01:17:00,70.5,55.0,29.96,SW,214,0.0,1.0,59,0.00,,,0.00,weatherlink.com 1.10,2013-08-06 05:17:00,
2013-08-06 01:32:00,70.2,55.0,29.96,South,172,0.0,1.0,59,0.00,,,0.00,weatherlink.com 1.10,2013-08-06 05:32:00,
2013-08-06 01:47:00,70.7,55.0,29.96,SSE,165,0.0,1.0,58,0.00,,,0.00,weatherlink.com 1.10,2013-08-06 05:47:00,
2013-08-06 02:02:00,70.5,55.0,29.96,SSE,166,0.0,1.0,59,0.00,,,0.00,weatherlink.com 1.10,2013-08-06 06:02:00,
2013-08-06 02:17:00,70.6,55.0,29.96,South,170,0.0,1.0,59,0.00,,,0.00,weatherlink.com 1.10,2013-08-06 06:17:00,
2013-08-06 02:32:00,70.0,55.0,29.96,South,170,0.0,0.0,60,0.00,,,0.00,weatherlink.com 1.10,2013-08-06 06:32:00,
2013-08-06 02:47:00,69.6,56.0,29.96,South,169,0.0,1.0,62,0.00,,,0.00,weatherlink.com 1.10,2013-08-06 06:47:00,
2013-08-06 03:02:00,69.5,56.0,29.96,SSE,166,0.0,1.0,63,0.00,,,0.00,weatherlink.com 1.10,2013-08-06 07:02:00,
2013-08-06 03:17:00,69.6,56.0,29.96,SSE,155,0.0,1.0,63,0.00,,,0.00,weatherlink.com 1.10,2013-08-06 07:17:00,
2013-08-06 03:32:00,69.4,57.0,29.96,SSE,156,0.0,1.0,64,0.00,,,0.00,weatherlink.com 1.10,2013-08-06 07:32:00,
2013-08-06 03:47:00,69.3,57.0,29.96,SSE,160,0.0,0.0,64,0.00,,,0.00,weatherlink.com 1.10,2013-08-06 07:47:00,
2013-08-06 04:02:00,69.0,57.0,29.96,South,169,0.0,1.0,65,0.00,,,0.00,weatherlink.com 1.10,2013-08-06 08:02:00,
2013-08-06 04:17:00,68.6,57.0,29.96,South,169,0.0,0.0,66,0.00,,,0.00,weatherlink.com 1.10,2013-08-06 08:17:00,
2013-08-06 04:33:00,67.9,56.0,29.97,South,169,0.0,0.0,66,0.00,,,0.00,weatherlink.com 1.10,2013-08-06 08:33:00,
2013-08-06 04:48:00,68.1,53.0,29.97,South,169,0.0,0.0,59,0.00,,,0.00,weatherlink.com 1.10,2013-08-06 08:48:00,
2013-08-06 05:03:00,68.1,54.0,29.97,SSE,166,0.0,1.0,61,0.00,,,0.00,weatherlink.com 1.10,2013-08-06 09:03:00,
2013-08-06 05:18:00,67.6,56.0,29.97,SSE,166,0.0,1.0,66,0.00,,,0.00,weatherlink.com 1.10,2013-08-06 09:18:00,
2013-08-06 05:33:00,67.4,56.0,29.98,SSE,166,0.0,1.0,68,0.00,,,0.00,weatherlink.com 1.10,2013-08-06 09:33:00,
2013-08-06 05:48:00,66.9,57.0,29.98,SSE,166,0.0,0.0,70,0.00,,,0.00,weatherlink.com 1.10,2013-08-06 09:48:00,
2013-08-06 06:03:00,72.8,58.0,29.98,SSE,162,3.0,4.0,61,0.00,,,0.00,weatherlink.com 1.10,2013-08-06 10:03:00,
2013-08-06 06:18:00,76.8,58.0,29.98,SE,132,2.0,3.0,52,0.00,,,0.00,weatherlink.com 1.10,2013-08-06 10:18:00,
2013-08-06 06:33:00,76.7,57.0,29.99,South,186,3.0,4.0,51,0.00,,,0.00,weatherlink.com 1.10,2013-08-06 10:33:00,
2013-08-06 06:48:00,71.7,56.0,29.99,SSE,152,0.0,1.0,59,0.00,,,0.00,weatherlink.com 1.10,2013-08-06 10:48:00,
2013-08-06 07:03:00,75.8,58.0,29.99,SSE,151,3.0,4.0,55,0.00,,,0.00,weatherlink.com 1.10,2013-08-06 11:03:00,
2013-08-06 07:18:00,70.8,57.0,29.99,WNW,297,0.0,1.0,63,0.00,,,0.00,weatherlink.com 1.10,2013-08-06 11:18:00,
2013-08-06 07:33:00,76.7,59.0,30.00,South,169,2.0,4.0,54,0.00,,,0.00,weatherlink.com 1.10,2013-08-06 11:33:00,
2013-08-06 07:48:00,70.9,57.0,30.00,NNW,345,2.0,2.0,62,0.00,,,0.00,weatherlink.com 1.10,2013-08-06 11:48:00,
2013-08-06 08:03:00,77.2,58.0,30.00,North,1,1.0,4.0,52,0.00,,,0.00,weatherlink.com 1.10,2013-08-06 12:03:00,
2013-08-06 08:18:00,71.1,58.0,30.00,SSW,211,0.0,1.0,63,0.00,,,0.00,weatherlink.com 1.10,2013-08-06 12:18:00,
2013-08-06 08:33:00,79.9,60.0,30.00,SE,125,0.0,4.0,51,0.00,,,0.00,weatherlink.com 1.10,2013-08-06 12:33:00,
2013-08-06 08:48:00,73.7,60.0,30.00,NW,323,2.0,4.0,62,0.00,,,0.00,weatherlink.com 1.10,2013-08-06 12:48:00,
2013-08-06 09:03:00,78.1,59.0,30.00,NW,309,1.0,4.0,53,0.00,,,0.00,weatherlink.com 1.10,2013-08-06 13:03:00,
2013-08-06 09:18:00,75.2,60.0,30.00,SE,138,3.0,4.0,59,0.00,,,0.00,weatherlink.com 1.10,2013-08-06 13:18:00,
2013-08-06 09:33:00,79.5,59.0,30.00,NW,311,1.0,5.0,49,0.00,,,0.00,weatherlink.com 1.10,2013-08-06 13:33:00,
2013-08-06 09:48:00,76.9,60.0,30.01,NW,311,3.0,4.0,56,0.00,,,0.00,weatherlink.com 1.10,2013-08-06 13:48:00,
2013-08-06 10:03:00,80.3,61.0,30.01,NW,311,1.0,6.0,52,0.00,,,0.00,weatherlink.com 1.10,2013-08-06 14:03:00,
2013-08-06 10:19:00,75.7,60.0,30.01,NNW,332,1.0,5.0,59,0.00,,,0.00,weatherlink.com 1.10,2013-08-06 14:19:00,
2013-08-06 10:33:00,78.4,61.0,30.01,NW,326,3.0,4.0,56,0.00,,,0.00,weatherlink.com 1.10,2013-08-06 14:33:00,
2013-08-06 10:48:00,77.4,60.0,30.01,SE,141,3.0,4.0,55,0.00,,,0.00,weatherlink.com 1.10,2013-08-06 14:48:00,
2013-08-06 11:03:00,80.4,59.0,30.01,North,9,2.0,6.0,49,0.00,,,0.00,weatherlink.com 1.10,2013-08-06 15:03:00,
2013-08-06 11:18:00,80.0,60.0,30.01,NW,321,2.0,5.0,51,0.00,,,0.00,weatherlink.com 1.10,2013-08-06 15:18:00,
2013-08-06 11:33:00,82.8,59.0,30.01,WNW,295,0.0,4.0,45,0.00,,,0.00,weatherlink.com 1.10,2013-08-06 15:33:00,
2013-08-06 11:48:00,78.8,55.0,30.01,ENE,65,2.0,4.0,44,0.00,,,0.00,weatherlink.com 1.10,2013-08-06 15:48:00,
2013-08-06 12:03:00,83.9,52.0,30.02,ESE,103,1.0,4.0,33,0.00,,,0.00,weatherlink.com 1.10,2013-08-06 16:03:00,
2013-08-06 12:18:00,77.1,51.0,30.02,South,173,2.0,5.0,40,0.00,,,0.00,weatherlink.com 1.10,2013-08-06 16:18:00,
2013-08-06 12:33:00,85.0,52.0,30.02,SSE,158,0.0,4.0,32,0.00,,,0.00,weatherlink.com 1.10,2013-08-06 16:33:00,
2013-08-06 12:48:00,80.0,51.0,30.02,SE,127,0.0,3.0,36,0.00,,,0.00,weatherlink.com 1.10,2013-08-06 16:48:00,
2013-08-06 13:03:00,84.6,52.0,30.02,SSE,152,2.0,5.0,32,0.00,,,0.00,weatherlink.com 1.10,2013-08-06 17:03:00,
2013-08-06 13:18:00,83.9,51.0,30.02,SE,131,1.0,3.0,32,0.00,,,0.00,weatherlink.com 1.10,2013-08-06 17:18:00,
2013-08-06 13:33:00,88.4,51.0,30.01,SSE,163,4.0,5.0,28,0.00,,,0.00,weatherlink.com 1.10,2013-08-06 17:33:00,
2013-08-06 13:49:00,85.4,51.0,30.01,SE,145,1.0,6.0,30,0.00,,,0.00,weatherlink.com 1.10,2013-08-06 17:49:00,
2013-08-06 14:04:00,89.2,52.0,30.01,ESE,118,3.0,6.0,28,0.00,,,0.00,weatherlink.com 1.10,2013-08-06 18:04:00,
2013-08-06 14:19:00,84.8,51.0,30.02,SE,145,0.0,7.0,31,0.00,,,0.00,weatherlink.com 1.10,2013-08-06 18:19:00,
2013-08-06 14:34:00,87.9,53.0,30.02,SSE,155,2.0,10.0,30,0.00,,,0.00,weatherlink.com 1.10,2013-08-06 18:34:00,
2013-08-06 14:49:00,85.9,53.0,30.01,South,191,0.0,6.0,32,0.00,,,0.00,weatherlink.com 1.10,2013-08-06 18:49:00,
2013-08-06 15:04:00,89.2,53.0,30.01,South,179,3.0,5.0,29,0.00,,,0.00,weatherlink.com 1.10,2013-08-06 19:04:00,
2013-08-06 15:19:00,85.9,52.0,30.01,SE,144,2.0,12.0,31,0.00,,,0.00,weatherlink.com 1.10,2013-08-06 19:19:00,
2013-08-06 15:34:00,87.7,53.0,30.01,SSE,157,3.0,4.0,30,0.00,,,0.00,weatherlink.com 1.10,2013-08-06 19:34:00,
2013-08-06 15:49:00,85.4,53.0,30.01,SE,139,1.0,6.0,33,0.00,,,0.00,weatherlink.com 1.10,2013-08-06 19:49:00,
2013-08-06 16:04:00,87.8,55.0,30.01,SSE,150,3.0,7.0,33,0.00,,,0.00,weatherlink.com 1.10,2013-08-06 20:04:00,
2013-08-06 16:19:00,82.7,55.0,30.01,SSW,210,5.0,11.0,38,0.00,,,0.00,weatherlink.com 1.10,2013-08-06 20:19:00,
2013-08-06 16:34:00,84.9,53.0,30.01,SW,221,2.0,6.0,33,0.00,,,0.00,weatherlink.com 1.10,2013-08-06 20:34:00,
2013-08-06 16:49:00,82.6,53.0,30.02,West,281,1.0,9.0,36,0.00,,,0.00,weatherlink.com 1.10,2013-08-06 20:49:00,
2013-08-06 17:04:00,85.2,53.0,30.01,SE,145,3.0,6.0,33,0.00,,,0.00,weatherlink.com 1.10,2013-08-06 21:04:00,
2013-08-06 17:19:00,82.0,53.0,30.02,WNW,284,1.0,3.0,37,0.00,,,0.00,weatherlink.com 1.10,2013-08-06 21:19:00,
2013-08-06 17:34:00,83.0,56.0,30.02,South,186,3.0,5.0,39,0.00,,,0.00,weatherlink.com 1.10,2013-08-06 21:34:00,
2013-08-06 17:49:00,79.2,52.0,30.02,SSE,148,2.0,10.0,39,0.00,,,0.00,weatherlink.com 1.10,2013-08-06 21:49:00,
2013-08-06 18:04:00,84.2,55.0,30.02,SW,231,3.0,6.0,37,0.00,,,0.00,weatherlink.com 1.10,2013-08-06 22:04:00,
2013-08-06 18:19:00,77.9,54.0,30.02,SSW,202,2.0,4.0,44,0.00,,,0.00,weatherlink.com 1.10,2013-08-06 22:19:00,
2013-08-06 18:34:00,82.7,57.0,30.02,SSE,164,2.0,8.0,41,0.00,,,0.00,weatherlink.com 1.10,2013-08-06 22:34:00,
2013-08-06 18:49:00,76.7,54.0,30.03,NNW,342,2.0,9.0,46,0.00,,,0.00,weatherlink.com 1.10,2013-08-06 22:49:00,
2013-08-06 19:04:00,80.7,55.0,30.03,South,170,6.0,6.0,42,0.00,,,0.00,weatherlink.com 1.10,2013-08-06 23:04:00,
2013-08-06 19:19:00,74.8,57.0,30.03,ESE,113,2.0,7.0,55,0.00,,,0.00,weatherlink.com 1.10,2013-08-06 23:19:00,
2013-08-06 19:34:00,77.9,58.0,30.03,SE,138,1.0,7.0,50,0.00,,,0.00,weatherlink.com 1.10,2013-08-06 23:34:00,
2013-08-06 19:49:00,75.9,58.0,30.03,SSE,157,0.0,8.0,54,0.00,,,0.00,weatherlink.com 1.10,2013-08-06 23:49:00,
2013-08-06 20:04:00,74.1,59.0,30.03,West,269,2.0,7.0,59,0.00,,,0.00,weatherlink.com 1.10,2013-08-07 00:04:00,
2013-08-06 20:19:00,79.2,59.0,30.03,SSW,197,2.0,5.0,51,0.00,,,0.00,weatherlink.com 1.10,2013-08-07 00:19:00,
2013-08-06 20:34:00,74.4,59.0,30.03,SE,146,0.0,4.0,58,0.00,,,0.00,weatherlink.com 1.10,2013-08-07 00:34:00,
2013-08-06 20:49:00,73.5,59.0,30.03,SE,133,0.0,5.0,60,0.00,,,0.00,weatherlink.com 1.10,2013-08-07 00:49:00,
2013-08-06 21:04:00,72.8,58.0,30.03,SSW,206,1.0,5.0,61,0.00,,,0.00,weatherlink.com 1.10,2013-08-07 01:04:00,
2013-08-06 21:19:00,72.6,58.0,30.04,SE,139,1.0,5.0,61,0.00,,,0.00,weatherlink.com 1.10,2013-08-07 01:19:00,
2013-08-06 21:34:00,72.4,58.0,30.04,SE,146,0.0,6.0,61,0.00,,,0.00,weatherlink.com 1.10,2013-08-07 01:34:00,
2013-08-06 21:49:00,72.3,58.0,30.04,South,172,0.0,2.0,62,0.00,,,0.00,weatherlink.com 1.10,2013-08-07 01:49:00,
2013-08-06 22:04:00,72.2,58.0,30.04,SSE,160,1.0,4.0,62,0.00,,,0.00,weatherlink.com 1.10,2013-08-07 02:04:00,
2013-08-06 22:19:00,72.1,59.0,30.04,South,176,1.0,7.0,64,0.00,,,0.00,weatherlink.com 1.10,2013-08-07 02:19:00,
2013-08-06 22:34:00,71.8,59.0,30.04,SE,146,0.0,4.0,64,0.00,,,0.00,weatherlink.com 1.10,2013-08-07 02:34:00,
2013-08-06 22:49:00,71.6,59.0,30.04,ESE,120,0.0,3.0,65,0.00,,,0.00,weatherlink.com 1.10,2013-08-07 02:49:00,
2013-08-06 23:04:00,71.6,59.0,30.04,NW,323,1.0,6.0,64,0.00,,,0.00,weatherlink.com 1.10,2013-08-07 03:04:00,
2013-08-06 23:19:00,71.6,59.0,30.04,WSW,240,0.0,3.0,64,0.00,,,0.00,weatherlink.com 1.10,2013-08-07 03:19:00,
2013-08-06 23:34:00,71.8,58.0,30.04,SW,214,0.0,7.0,63,0.00,,,0.00,weatherlink.com 1.10,2013-08-07 03:34:00,
2013-08-06 23:49:00,71.9,59.0,30.04,SE,131,0.0,6.0,63,0.00,,,0.00,weatherlink.com 1.10,2013-08-07 03:49:00,